sensor_id;sensor_type;location;lat;lon;timestamp;pressure;altitude;pressure_sealevel;temperature;humidity
60427;BME280;46274;47.168;27.604;2023-12-07T00:04:10;100162.72;;;-1.66;100.00
60427;BME280;46274;47.168;27.604;2023-12-07T00:10:13;100085.91;;;-2.12;100.00
60427;BME280;46274;47.168;27.604;2023-12-07T00:16:15;100254.88;;;-1.11;100.00
60427;BME280;46274;47.168;27.604;2023-12-07T00:22:17;100230.91;;;-1.24;100.00
60427;BME280;46274;47.168;27.604;2023-12-07T00:28:22;100259.44;;;-0.99;100.00
60427;BME280;46274;47.168;27.604;2023-12-07T00:34:29;100196.84;;;-1.60;100.00
60427;BME280;46274;47.168;27.604;2023-12-07T00:40:36;100225.03;;;-1.43;100.00
60427;BME280;46274;47.168;27.604;2023-12-07T00:46:44;100064.13;;;-2.32;100.00
60427;BME280;46274;47.168;27.604;2023-12-07T00:53:00;100241.22;;;-1.19;100.00
60427;BME280;46274;47.168;27.604;2023-12-07T00:59:10;100243.25;;;-1.23;100.00
60427;BME280;46274;47.168;27.604;2023-12-07T01:05:25;100246.00;;;-1.24;99.86
60427;BME280;46274;47.168;27.604;2023-12-07T01:11:35;100201.44;;;-1.62;99.49
60427;BME280;46274;47.168;27.604;2023-12-07T01:17:45;100235.47;;;-1.40;98.48
60427;BME280;46274;47.168;27.604;2023-12-07T01:24:06;100055.81;;;-2.40;98.41
60427;BME280;46274;47.168;27.604;2023-12-07T01:30:16;100165.47;;;-1.82;97.72
60427;BME280;46274;47.168;27.604;2023-12-07T01:36:29;100236.06;;;-1.49;98.05
60427;BME280;46274;47.168;27.604;2023-12-07T01:42:37;100144.22;;;-1.97;97.90
60427;BME280;46274;47.168;27.604;2023-12-07T01:48:57;100051.78;;;-2.61;98.51
60427;BME280;46274;47.168;27.604;2023-12-07T01:55:15;100235.75;;;-1.45;98.68
60427;BME280;46274;47.168;27.604;2023-12-07T02:01:35;100110.28;;;-2.20;98.16
60427;BME280;46274;47.168;27.604;2023-12-07T02:07:45;100229.88;;;-1.64;97.27
60427;BME280;46274;47.168;27.604;2023-12-07T02:13:58;100228.09;;;-1.64;96.55
60427;BME280;46274;47.168;27.604;2023-12-07T02:26:46;99963.59;;;-3.38;96.38
60427;BME280;46274;47.168;27.604;2023-12-07T02:33:03;100242.03;;;-1.60;96.77
60427;BME280;46274;47.168;27.604;2023-12-07T02:39:35;100251.16;;;-1.64;97.31
60427;BME280;46274;47.168;27.604;2023-12-07T02:45:37;100254.44;;;-1.61;96.80
60427;BME280;46274;47.168;27.604;2023-12-07T02:51:49;100223.81;;;-1.81;96.82
60427;BME280;46274;47.168;27.604;2023-12-07T02:57:56;100243.44;;;-1.69;96.91
60427;BME280;46274;47.168;27.604;2023-12-07T03:04:09;100192.88;;;-2.10;97.18
60427;BME280;46274;47.168;27.604;2023-12-07T03:10:28;100122.09;;;-2.54;97.00
60427;BME280;46274;47.168;27.604;2023-12-07T03:16:31;100270.97;;;-1.70;96.39
60427;BME280;46274;47.168;27.604;2023-12-07T03:22:41;100272.88;;;-1.72;96.07
60427;BME280;46274;47.168;27.604;2023-12-07T03:28:47;100222.06;;;-2.10;96.89
60427;BME280;46274;47.168;27.604;2023-12-07T03:35:00;100244.84;;;-1.92;95.75
60427;BME280;46274;47.168;27.604;2023-12-07T03:41:02;100108.00;;;-2.85;95.87
60427;BME280;46274;47.168;27.604;2023-12-07T03:47:13;100116.72;;;-2.83;95.94
60427;BME280;46274;47.168;27.604;2023-12-07T03:53:27;100282.59;;;-1.87;95.28
60427;BME280;46274;47.168;27.604;2023-12-07T04:00:00;100288.03;;;-1.88;95.31
60427;BME280;46274;47.168;27.604;2023-12-07T04:06:05;100289.91;;;-1.90;95.10
60427;BME280;46274;47.168;27.604;2023-12-07T04:12:13;100269.19;;;-2.14;94.97
60427;BME280;46274;47.168;27.604;2023-12-07T04:18:16;100285.31;;;-2.03;95.22
60427;BME280;46274;47.168;27.604;2023-12-07T04:24:24;100274.13;;;-2.08;95.23
60427;BME280;46274;47.168;27.604;2023-12-07T04:30:28;100270.88;;;-2.13;95.09
60427;BME280;46274;47.168;27.604;2023-12-07T04:36:31;100256.72;;;-2.28;95.86
60427;BME280;46274;47.168;27.604;2023-12-07T04:42:33;100245.22;;;-2.43;95.92
60427;BME280;46274;47.168;27.604;2023-12-07T04:48:46;100074.59;;;-3.34;95.91
60427;BME280;46274;47.168;27.604;2023-12-07T04:55:02;99957.44;;;-4.15;95.33
60427;BME280;46274;47.168;27.604;2023-12-07T05:01:06;100115.09;;;-3.32;95.89
60427;BME280;46274;47.168;27.604;2023-12-07T05:07:20;100309.41;;;-2.06;95.23
60427;BME280;46274;47.168;27.604;2023-12-07T05:13:46;100271.31;;;-2.35;95.69
60427;BME280;46274;47.168;27.604;2023-12-07T05:19:55;100294.19;;;-2.18;94.41
60427;BME280;46274;47.168;27.604;2023-12-07T05:26:00;100240.69;;;-2.56;93.88
60427;BME280;46274;47.168;27.604;2023-12-07T05:32:08;100317.44;;;-2.07;93.88
60427;BME280;46274;47.168;27.604;2023-12-07T05:38:14;100295.59;;;-2.27;93.39
60427;BME280;46274;47.168;27.604;2023-12-07T05:44:22;100254.91;;;-2.57;93.32
60427;BME280;46274;47.168;27.604;2023-12-07T05:50:38;100326.56;;;-2.11;93.37
60427;BME280;46274;47.168;27.604;2023-12-07T05:56:45;100326.88;;;-2.17;94.03
60427;BME280;46274;47.168;27.604;2023-12-07T06:03:01;100276.72;;;-2.52;95.20
60427;BME280;46274;47.168;27.604;2023-12-07T06:09:33;100145.69;;;-3.26;95.58
60427;BME280;46274;47.168;27.604;2023-12-07T06:15:57;100333.56;;;-2.10;96.69
60427;BME280;46274;47.168;27.604;2023-12-07T06:22:05;100341.97;;;-2.18;95.96
60427;BME280;46274;47.168;27.604;2023-12-07T06:28:12;100321.53;;;-2.32;95.09
60427;BME280;46274;47.168;27.604;2023-12-07T06:34:23;100312.22;;;-2.39;95.20
60427;BME280;46274;47.168;27.604;2023-12-07T06:40:46;100279.72;;;-2.58;94.48
60427;BME280;46274;47.168;27.604;2023-12-07T06:46:57;100321.97;;;-2.39;94.64
60427;BME280;46274;47.168;27.604;2023-12-07T06:53:00;100346.75;;;-2.25;94.36
60427;BME280;46274;47.168;27.604;2023-12-07T06:59:16;100353.44;;;-2.17;94.49
60427;BME280;46274;47.168;27.604;2023-12-07T07:05:28;100347.34;;;-2.20;94.14
60427;BME280;46274;47.168;27.604;2023-12-07T07:11:33;100349.75;;;-2.15;94.46
60427;BME280;46274;47.168;27.604;2023-12-07T07:17:43;100347.47;;;-2.21;95.14
60427;BME280;46274;47.168;27.604;2023-12-07T07:23:49;100354.91;;;-2.28;94.51
60427;BME280;46274;47.168;27.604;2023-12-07T07:29:56;100298.03;;;-2.54;94.59
60427;BME280;46274;47.168;27.604;2023-12-07T07:35:58;100226.06;;;-3.10;94.24
60427;BME280;46274;47.168;27.604;2023-12-07T07:42:10;100363.53;;;-2.08;93.06
60427;BME280;46274;47.168;27.604;2023-12-07T07:48:15;100340.63;;;-2.41;93.75
60427;BME280;46274;47.168;27.604;2023-12-07T07:54:18;100273.75;;;-2.62;93.22
60427;BME280;46274;47.168;27.604;2023-12-07T08:00:20;100333.06;;;-2.33;93.31
60427;BME280;46274;47.168;27.604;2023-12-07T08:06:29;100332.22;;;-2.33;93.20
60427;BME280;46274;47.168;27.604;2023-12-07T08:12:57;100362.56;;;-2.07;93.03
60427;BME280;46274;47.168;27.604;2023-12-07T08:19:30;100377.88;;;-1.97;92.31
60427;BME280;46274;47.168;27.604;2023-12-07T08:25:47;100383.19;;;-1.81;92.38
60427;BME280;46274;47.168;27.604;2023-12-07T08:31:59;100381.44;;;-1.82;90.86
60427;BME280;46274;47.168;27.604;2023-12-07T08:38:01;100380.69;;;-1.84;91.02
60427;BME280;46274;47.168;27.604;2023-12-07T08:44:15;100376.00;;;-1.64;90.55
60427;BME280;46274;47.168;27.604;2023-12-07T08:50:20;100356.44;;;-1.78;90.19
60427;BME280;46274;47.168;27.604;2023-12-07T08:56:30;100356.81;;;-1.69;89.08
60427;BME280;46274;47.168;27.604;2023-12-07T09:02:32;100354.19;;;-1.55;89.32
60427;BME280;46274;47.168;27.604;2023-12-07T09:08:49;100353.78;;;-1.63;88.90
60427;BME280;46274;47.168;27.604;2023-12-07T09:14:59;100302.75;;;-1.68;89.06
60427;BME280;46274;47.168;27.604;2023-12-07T09:21:03;100344.91;;;-1.62;89.27
60427;BME280;46274;47.168;27.604;2023-12-07T09:27:24;100183.94;;;-2.24;89.01
60427;BME280;46274;47.168;27.604;2023-12-07T09:33:26;100331.81;;;-1.51;86.95
60427;BME280;46274;47.168;27.604;2023-12-07T09:39:29;100334.50;;;-1.37;86.73
60427;BME280;46274;47.168;27.604;2023-12-07T09:45:32;100327.44;;;-1.38;87.02
60427;BME280;46274;47.168;27.604;2023-12-07T09:51:38;100327.47;;;-1.23;86.54
60427;BME280;46274;47.168;27.604;2023-12-07T09:57:40;100327.47;;;-1.23;86.49
60427;BME280;46274;47.168;27.604;2023-12-07T10:03:42;100333.13;;;-1.29;85.47
60427;BME280;46274;47.168;27.604;2023-12-07T10:09:49;100335.63;;;-1.26;85.77
60427;BME280;46274;47.168;27.604;2023-12-07T10:22:14;100320.34;;;-1.23;84.57
60427;BME280;46274;47.168;27.604;2023-12-07T10:28:19;100319.88;;;-1.15;85.07
60427;BME280;46274;47.168;27.604;2023-12-07T10:34:23;100312.66;;;-1.27;84.61
60427;BME280;46274;47.168;27.604;2023-12-07T10:40:38;100309.13;;;-1.14;84.31
60427;BME280;46274;47.168;27.604;2023-12-07T10:46:49;100234.16;;;-1.62;84.22
60427;BME280;46274;47.168;27.604;2023-12-07T10:52:55;100231.47;;;-1.47;84.79
60427;BME280;46274;47.168;27.604;2023-12-07T10:59:02;100181.69;;;-1.87;84.17
60427;BME280;46274;47.168;27.604;2023-12-07T11:05:05;100188.34;;;-1.80;83.36
60427;BME280;46274;47.168;27.604;2023-12-07T11:11:38;100266.31;;;-1.23;84.22
60427;BME280;46274;47.168;27.604;2023-12-07T11:17:55;100295.16;;;-1.03;84.12
60427;BME280;46274;47.168;27.604;2023-12-07T11:24:01;100178.25;;;-1.60;84.52
60427;BME280;46274;47.168;27.604;2023-12-07T11:30:13;100283.28;;;-0.97;85.43
60427;BME280;46274;47.168;27.604;2023-12-07T11:36:18;100230.63;;;-1.34;85.24
60427;BME280;46274;47.168;27.604;2023-12-07T11:42:32;100213.28;;;-1.39;84.88
60427;BME280;46274;47.168;27.604;2023-12-07T11:48:34;100131.03;;;-1.84;84.01
60427;BME280;46274;47.168;27.604;2023-12-07T11:54:45;100246.91;;;-1.11;84.04
60427;BME280;46274;47.168;27.604;2023-12-07T12:00:56;100092.75;;;-2.08;84.15
60427;BME280;46274;47.168;27.604;2023-12-07T12:07:06;100264.09;;;-1.02;85.00
60427;BME280;46274;47.168;27.604;2023-12-07T12:13:09;100222.63;;;-1.19;84.73
60427;BME280;46274;47.168;27.604;2023-12-07T12:19:16;100159.38;;;-1.56;84.13
60427;BME280;46274;47.168;27.604;2023-12-07T12:25:34;100266.47;;;-0.98;85.33
60427;BME280;46274;47.168;27.604;2023-12-07T12:31:36;100073.50;;;-1.98;84.96
60427;BME280;46274;47.168;27.604;2023-12-07T12:37:47;100271.72;;;-1.11;84.89
60427;BME280;46274;47.168;27.604;2023-12-07T12:43:53;100262.84;;;-0.97;85.06
60427;BME280;46274;47.168;27.604;2023-12-07T12:49:56;100209.94;;;-1.28;85.05
60427;BME280;46274;47.168;27.604;2023-12-07T12:55:58;100263.41;;;-0.92;85.17
60427;BME280;46274;47.168;27.604;2023-12-07T13:02:04;100272.44;;;-0.94;85.07
60427;BME280;46274;47.168;27.604;2023-12-07T13:08:06;100231.84;;;-1.25;84.69
60427;BME280;46274;47.168;27.604;2023-12-07T13:14:15;100232.06;;;-1.42;84.03
60427;BME280;46274;47.168;27.604;2023-12-07T13:20:21;100276.34;;;-1.00;84.56
60427;BME280;46274;47.168;27.604;2023-12-07T13:26:29;100275.19;;;-0.96;84.72
60427;BME280;46274;47.168;27.604;2023-12-07T13:32:36;100278.81;;;-0.97;84.86
60427;BME280;46274;47.168;27.604;2023-12-07T13:38:44;100269.22;;;-0.99;84.56
60427;BME280;46274;47.168;27.604;2023-12-07T13:44:49;100289.66;;;-1.00;85.06
60427;BME280;46274;47.168;27.604;2023-12-07T13:50:52;100285.81;;;-0.96;85.03
60427;BME280;46274;47.168;27.604;2023-12-07T13:56:56;100269.53;;;-1.18;86.02
60427;BME280;46274;47.168;27.604;2023-12-07T14:02:58;100285.88;;;-1.24;86.64
60427;BME280;46274;47.168;27.604;2023-12-07T14:09:01;100281.78;;;-1.16;86.05
60427;BME280;46274;47.168;27.604;2023-12-07T14:15:04;100303.34;;;-1.20;87.28
60427;BME280;46274;47.168;27.604;2023-12-07T14:21:07;100301.06;;;-1.41;88.78
60427;BME280;46274;47.168;27.604;2023-12-07T14:27:35;100219.81;;;-1.88;88.87
60427;BME280;46274;47.168;27.604;2023-12-07T14:33:38;100309.41;;;-1.61;91.26
60427;BME280;46274;47.168;27.604;2023-12-07T14:39:43;100207.88;;;-1.95;91.08
60427;BME280;46274;47.168;27.604;2023-12-07T14:46:01;100327.06;;;-1.46;93.57
60427;BME280;46274;47.168;27.604;2023-12-07T14:52:04;100239.59;;;-2.08;94.51
60427;BME280;46274;47.168;27.604;2023-12-07T14:58:07;100168.94;;;-2.39;94.41
60427;BME280;46274;47.168;27.604;2023-12-07T15:04:09;100197.41;;;-2.27;95.17
60427;BME280;46274;47.168;27.604;2023-12-07T15:10:33;100331.16;;;-1.55;95.47
60427;BME280;46274;47.168;27.604;2023-12-07T15:16:43;100196.91;;;-2.64;97.13
60427;BME280;46274;47.168;27.604;2023-12-07T15:22:53;100312.47;;;-1.98;96.01
60427;BME280;46274;47.168;27.604;2023-12-07T15:29:02;100042.50;;;-3.59;96.35
60427;BME280;46274;47.168;27.604;2023-12-07T15:35:16;100119.59;;;-3.18;97.22
60427;BME280;46274;47.168;27.604;2023-12-07T15:41:18;100337.84;;;-1.78;96.64
60427;BME280;46274;47.168;27.604;2023-12-07T15:47:50;100198.81;;;-2.66;96.35
60427;BME280;46274;47.168;27.604;2023-12-07T15:54:19;100307.56;;;-2.35;98.18
60427;BME280;46274;47.168;27.604;2023-12-07T16:00:46;100346.19;;;-2.00;98.55
60427;BME280;46274;47.168;27.604;2023-12-07T16:06:56;100277.31;;;-2.47;97.77
60427;BME280;46274;47.168;27.604;2023-12-07T16:13:01;100346.91;;;-1.96;96.79
60427;BME280;46274;47.168;27.604;2023-12-07T16:19:24;99982.53;;;-4.38;98.56
60427;BME280;46274;47.168;27.604;2023-12-07T16:25:46;100359.34;;;-2.12;98.18
60427;BME280;46274;47.168;27.604;2023-12-07T16:32:37;99913.88;;;-4.89;98.46
60427;BME280;46274;47.168;27.604;2023-12-07T16:38:53;100231.50;;;-2.81;97.81
60427;BME280;46274;47.168;27.604;2023-12-07T16:45:06;100361.09;;;-1.97;98.05
60427;BME280;46274;47.168;27.604;2023-12-07T16:51:35;100383.75;;;-2.06;97.45
60427;BME280;46274;47.168;27.604;2023-12-07T16:57:39;100189.81;;;-3.09;97.29
60427;BME280;46274;47.168;27.604;2023-12-07T17:04:34;100180.41;;;-3.15;96.93
60427;BME280;46274;47.168;27.604;2023-12-07T17:17:49;100276.66;;;-2.67;96.58
60427;BME280;46274;47.168;27.604;2023-12-07T17:24:58;100051.41;;;-3.76;95.49
60427;BME280;46274;47.168;27.604;2023-12-07T17:31:42;100394.25;;;-2.04;98.35
60427;BME280;46274;47.168;27.604;2023-12-07T17:38:13;100246.56;;;-2.97;98.42
60427;BME280;46274;47.168;27.604;2023-12-07T17:44:15;100407.38;;;-2.01;97.96
60427;BME280;46274;47.168;27.604;2023-12-07T17:50:30;100196.09;;;-3.43;98.62
60427;BME280;46274;47.168;27.604;2023-12-07T17:56:43;100185.00;;;-3.50;97.85
60427;BME280;46274;47.168;27.604;2023-12-07T18:03:02;100055.38;;;-4.32;97.80
60427;BME280;46274;47.168;27.604;2023-12-07T18:09:54;100404.94;;;-1.90;96.54
60427;BME280;46274;47.168;27.604;2023-12-07T18:16:12;100201.59;;;-3.15;96.23
60427;BME280;46274;47.168;27.604;2023-12-07T18:22:14;100295.03;;;-2.79;98.17
60427;BME280;46274;47.168;27.604;2023-12-07T18:28:44;100268.44;;;-2.78;96.08
60427;BME280;46274;47.168;27.604;2023-12-07T18:35:08;100402.44;;;-1.77;95.45
60427;BME280;46274;47.168;27.604;2023-12-07T18:41:40;100251.00;;;-2.82;96.40
60427;BME280;46274;47.168;27.604;2023-12-07T18:47:50;100326.66;;;-2.29;95.49
60427;BME280;46274;47.168;27.604;2023-12-07T18:53:53;100268.78;;;-2.68;95.86
60427;BME280;46274;47.168;27.604;2023-12-07T19:07:47;100111.28;;;-3.89;96.66
60427;BME280;46274;47.168;27.604;2023-12-07T19:21:19;100071.41;;;-3.86;94.19
60427;BME280;46274;47.168;27.604;2023-12-07T19:27:37;100400.94;;;-1.67;94.61
60427;BME280;46274;47.168;27.604;2023-12-07T19:40:56;100057.38;;;-4.04;95.75
60427;BME280;46274;47.168;27.604;2023-12-07T19:47:23;100053.59;;;-4.65;100.00
60427;BME280;46274;47.168;27.604;2023-12-07T19:53:49;100271.13;;;-3.59;100.00
60427;BME280;46274;47.168;27.604;2023-12-07T19:59:59;100419.38;;;-2.57;100.00
60427;BME280;46274;47.168;27.604;2023-12-07T20:12:50;100402.84;;;-1.69;93.98
60427;BME280;46274;47.168;27.604;2023-12-07T20:19:06;100038.16;;;-4.24;92.52
60427;BME280;46274;47.168;27.604;2023-12-07T20:25:21;100186.53;;;-3.46;94.45
60427;BME280;46274;47.168;27.604;2023-12-07T20:31:35;100351.19;;;-2.09;92.78
60427;BME280;46274;47.168;27.604;2023-12-07T20:38:02;100205.34;;;-3.19;93.37
60427;BME280;46274;47.168;27.604;2023-12-07T20:44:20;100283.09;;;-2.41;91.53
60427;BME280;46274;47.168;27.604;2023-12-07T20:50:24;100400.84;;;-1.65;91.13
60427;BME280;46274;47.168;27.604;2023-12-07T20:56:50;100267.56;;;-2.47;91.15
60427;BME280;46274;47.168;27.604;2023-12-07T21:02:56;99963.31;;;-4.42;91.20
60427;BME280;46274;47.168;27.604;2023-12-07T21:09:21;100183.34;;;-2.89;90.01
60427;BME280;46274;47.168;27.604;2023-12-07T21:15:29;100050.41;;;-3.74;89.67
60427;BME280;46274;47.168;27.604;2023-12-07T21:21:48;100271.84;;;-2.60;91.10
60427;BME280;46274;47.168;27.604;2023-12-07T21:27:56;100060.88;;;-4.04;91.59
60427;BME280;46274;47.168;27.604;2023-12-07T21:34:08;100404.97;;;-2.06;92.96
60427;BME280;46274;47.168;27.604;2023-12-07T21:40:30;100043.13;;;-4.18;92.10
60427;BME280;46274;47.168;27.604;2023-12-07T21:46:43;100058.41;;;-4.23;93.15
60427;BME280;46274;47.168;27.604;2023-12-07T21:52:53;100073.84;;;-4.15;92.94
60427;BME280;46274;47.168;27.604;2023-12-07T21:59:00;100418.69;;;-2.29;93.05
60427;BME280;46274;47.168;27.604;2023-12-07T22:05:12;100295.47;;;-2.87;94.55
60427;BME280;46274;47.168;27.604;2023-12-07T22:11:19;100045.38;;;-4.94;98.08
60427;BME280;46274;47.168;27.604;2023-12-07T22:17:29;100055.00;;;-4.75;98.10
60427;BME280;46274;47.168;27.604;2023-12-07T22:23:40;100249.97;;;-2.95;93.50
60427;BME280;46274;47.168;27.604;2023-12-07T22:29:44;100055.66;;;-4.21;93.17
60427;BME280;46274;47.168;27.604;2023-12-07T22:35:53;100052.66;;;-4.31;93.67
60427;BME280;46274;47.168;27.604;2023-12-07T22:41:56;100019.63;;;-4.40;93.31
60427;BME280;46274;47.168;27.604;2023-12-07T22:48:01;100026.97;;;-4.29;92.78
60427;BME280;46274;47.168;27.604;2023-12-07T22:54:08;100401.31;;;-2.67;98.17
60427;BME280;46274;47.168;27.604;2023-12-07T23:00:24;100007.19;;;-5.39;99.03
60427;BME280;46274;47.168;27.604;2023-12-07T23:06:30;100008.25;;;-5.43;100.00
60427;BME280;46274;47.168;27.604;2023-12-07T23:12:37;100037.84;;;-5.01;99.02
60427;BME280;46274;47.168;27.604;2023-12-07T23:18:48;100072.03;;;-4.98;99.31
60427;BME280;46274;47.168;27.604;2023-12-07T23:24:57;100398.66;;;-2.67;100.00
60427;BME280;46274;47.168;27.604;2023-12-07T23:31:04;100056.59;;;-4.22;95.14
60427;BME280;46274;47.168;27.604;2023-12-07T23:37:26;100255.34;;;-3.13;94.67
60427;BME280;46274;47.168;27.604;2023-12-07T23:43:45;100021.41;;;-5.24;99.53
60427;BME280;46274;47.168;27.604;2023-12-07T23:50:01;99998.09;;;-5.33;99.90
60427;BME280;46274;47.168;27.604;2023-12-07T23:56:28;100175.25;;;-3.81;97.57
